Kirensk, Russia
Current Conditions -  °F | °C
As of 4:30 PM on Saturday 20 Dec 2014 (Local Time) from UIBB Reporting Station
Broken Clouds Broken Clouds  
Wind Chill:   Ceiling: 10000
Heat Index: 21°   Visibility: 6mi
Dew Point: 14°   Wind: 13mph
Humidity: 74%   Direction: 270°W
Pressure: 30.18"   Gusts: NA
Location:  57.79°N, 108.11°E
Report Text: UIBB 200830Z 27006MPS 9999 SCT030CB BKN100 M06/M10 Q1022 NOSIGRMK QFE723/0965 30491030
Loading
Personal Weather Stations






























Interactive Weather Map New forecast layout! Learn more

10-Day Weather Forecast

Advertisements
Track Severe Weather on mobile